createdAt,value
2018-06-19T00:01:33.446Z,20.37
2018-06-19T00:04:01.729Z,20.40
2018-06-19T00:06:30.049Z,18.33
2018-06-19T00:08:58.301Z,21.50
2018-06-19T00:11:26.577Z,21.87
2018-06-19T00:13:54.817Z,18.13
2018-06-19T00:16:23.081Z,21.20
2018-06-19T00:18:54.516Z,22.57
2018-06-19T00:21:26.251Z,19.70
2018-06-19T00:23:54.609Z,20.30
2018-06-19T00:26:23.106Z,19.77
2018-06-19T00:28:51.397Z,18.17
2018-06-19T00:31:19.673Z,18.60
2018-06-19T00:33:47.969Z,20.93
2018-06-19T00:36:16.212Z,16.20
2018-06-19T00:38:44.681Z,18.20
2018-06-19T00:41:12.946Z,13.10
2018-06-19T00:43:41.193Z,15.93
2018-06-19T00:46:09.729Z,22.10
2018-06-19T00:48:38.100Z,17.00
2018-06-19T00:51:06.357Z,18.17
2018-06-19T00:53:34.617Z,17.70
2018-06-19T00:56:14.361Z,19.30
2018-06-19T00:58:43.005Z,19.30
2018-06-19T01:01:11.586Z,22.60
2018-06-19T01:03:39.856Z,27.50
2018-06-19T01:06:08.337Z,22.90
2018-06-19T01:08:36.599Z,20.90
2018-06-19T01:11:05.076Z,23.20
2018-06-19T01:13:33.314Z,21.77
2018-06-19T01:16:01.566Z,24.93
2018-06-19T01:18:30.009Z,23.20
2018-06-19T01:20:58.246Z,22.20
2018-06-19T01:23:26.536Z,29.43
2018-06-19T01:25:54.942Z,19.73
2018-06-19T01:28:23.203Z,23.17
2018-06-19T01:30:51.517Z,24.80
2018-06-19T01:33:19.797Z,23.40
2018-06-19T01:35:48.056Z,23.93
2018-06-19T01:38:16.320Z,26.50
2018-06-19T01:40:44.801Z,23.10
2018-06-19T01:43:13.041Z,22.33
2018-06-19T01:45:41.276Z,26.03
2018-06-19T01:48:09.563Z,21.93
2018-06-19T01:50:37.985Z,29.83
2018-06-19T01:53:06.222Z,20.50
2018-06-19T01:55:34.978Z,26.43
2018-06-19T01:58:03.212Z,23.57
2018-06-19T02:00:31.461Z,23.80
2018-06-19T02:03:00.011Z,23.17
2018-06-19T02:05:28.253Z,33.17
2018-06-19T02:07:56.489Z,23.03
2018-06-19T02:10:24.773Z,24.43
2018-06-19T02:12:53.041Z,21.80
2018-06-19T02:15:21.341Z,28.47
2018-06-19T02:17:49.664Z,26.93
2018-06-19T02:20:17.913Z,28.53
2018-06-19T02:22:46.157Z,28.60
2018-06-19T02:25:14.510Z,30.87
2018-06-19T02:27:42.764Z,32.37
2018-06-19T02:30:11.017Z,27.63
2018-06-19T02:32:39.303Z,27.63
2018-06-19T02:35:07.553Z,31.37
2018-06-19T02:37:35.805Z,26.00
2018-06-19T02:40:04.122Z,26.90
2018-06-19T02:42:32.413Z,24.73
2018-06-19T02:45:00.665Z,28.63
2018-06-19T02:47:29.079Z,32.83
2018-06-19T02:49:57.323Z,27.40
2018-06-19T02:52:25.609Z,26.40
2018-06-19T02:54:54.285Z,27.00
2018-06-19T02:57:22.553Z,36.07
2018-06-19T02:59:50.793Z,31.97
2018-06-19T03:02:19.057Z,36.93
2018-06-19T03:04:47.300Z,33.03
2018-06-19T03:07:15.572Z,26.37
2018-06-19T03:09:43.809Z,25.97
2018-06-19T03:12:12.072Z,26.77
2018-06-19T03:14:40.319Z,28.20
2018-06-19T03:17:08.596Z,31.23
2018-06-19T03:19:37.012Z,30.37
2018-06-19T03:22:05.325Z,32.67
2018-06-19T03:24:33.569Z,34.47
2018-06-19T03:27:01.841Z,26.30
2018-06-19T03:29:30.082Z,29.17
2018-06-19T03:31:58.353Z,28.43
2018-06-19T03:34:26.680Z,28.20
2018-06-19T03:36:54.969Z,26.70
2018-06-19T03:39:23.225Z,33.83
2018-06-19T03:41:51.471Z,31.30
2018-06-19T03:44:19.862Z,28.23
2018-06-19T03:46:48.133Z,28.20
2018-06-19T03:49:16.405Z,29.43
2018-06-19T03:51:44.649Z,34.53
2018-06-19T03:54:12.951Z,32.43
2018-06-19T03:56:41.222Z,27.30
2018-06-19T03:59:09.490Z,30.63
2018-06-19T04:01:37.749Z,35.50
2018-06-19T04:04:06.166Z,30.07
2018-06-19T04:06:34.405Z,36.60
2018-06-19T04:09:05.027Z,33.70
2018-06-19T04:11:33.276Z,33.60
2018-06-19T04:14:01.554Z,33.23
2018-06-19T04:16:29.828Z,34.80
2018-06-19T04:18:58.108Z,35.50
2018-06-19T04:21:26.357Z,32.87
2018-06-19T04:23:54.633Z,36.17
2018-06-19T04:26:22.878Z,27.70
2018-06-19T04:28:51.162Z,35.93
2018-06-19T04:31:19.397Z,30.73
2018-06-19T04:33:47.929Z,27.37
2018-06-19T04:36:16.187Z,34.83
2018-06-19T04:38:44.433Z,28.13
2018-06-19T04:41:12.792Z,37.97
2018-06-19T04:43:41.036Z,33.60
2018-06-19T04:46:09.315Z,37.90
2018-06-19T04:48:37.556Z,33.50
2018-06-19T04:51:05.933Z,35.80
2018-06-19T04:53:34.186Z,29.77
2018-06-19T04:56:02.508Z,30.90
2018-06-19T04:58:30.782Z,32.60
2018-06-19T05:00:59.049Z,30.40
2018-06-19T05:03:27.359Z,28.00
2018-06-19T05:05:55.670Z,30.43
2018-06-19T05:08:23.929Z,32.90
2018-06-19T05:10:52.201Z,36.57
2018-06-19T05:13:20.514Z,27.93
2018-06-19T05:15:48.775Z,24.37
2018-06-19T05:18:17.021Z,29.10
2018-06-19T05:20:45.285Z,32.87
2018-06-19T05:23:13.530Z,29.27
2018-06-19T05:25:41.806Z,29.23
2018-06-19T05:28:10.037Z,32.40
2018-06-19T05:30:38.308Z,24.07
2018-06-19T05:33:06.575Z,29.57
2018-06-19T05:35:34.867Z,33.97
2018-06-19T05:38:03.421Z,33.57
2018-06-19T05:40:31.778Z,32.27
2018-06-19T05:43:00.058Z,29.80
2018-06-19T05:45:28.473Z,22.30
2018-06-19T05:47:56.751Z,29.40
2018-06-19T05:50:24.996Z,24.93
2018-06-19T05:52:53.326Z,30.73
2018-06-19T05:55:21.544Z,28.53
2018-06-19T05:57:49.841Z,29.50
2018-06-19T06:00:18.184Z,27.10
2018-06-19T06:02:46.452Z,25.37
2018-06-19T06:05:14.825Z,29.93
2018-06-19T06:07:43.141Z,22.80
2018-06-19T06:10:11.378Z,28.63
2018-06-19T06:12:39.641Z,30.47
2018-06-19T06:15:07.884Z,29.00
2018-06-19T06:17:36.183Z,27.20
2018-06-19T06:20:05.217Z,32.93
2018-06-19T06:22:33.477Z,25.77
2018-06-19T06:25:01.724Z,31.83
2018-06-19T06:27:30.054Z,26.60
2018-06-19T06:29:58.372Z,28.13
2018-06-19T06:32:26.645Z,26.10
2018-06-19T06:34:54.919Z,32.93
2018-06-19T06:37:23.167Z,23.73
2018-06-19T06:39:51.473Z,29.63
2018-06-19T06:42:19.720Z,30.50
2018-06-19T06:44:48.063Z,35.50
2018-06-19T06:47:16.250Z,28.00
2018-06-19T06:49:44.522Z,30.63
2018-06-19T06:52:12.768Z,29.00
2018-06-19T06:54:41.078Z,33.10
2018-06-19T06:57:09.323Z,34.60
2018-06-19T06:59:37.593Z,41.70
2018-06-19T07:02:05.852Z,36.80
2018-06-19T07:04:34.277Z,35.63
2018-06-19T07:07:02.537Z,40.50
2018-06-19T07:09:30.953Z,46.00
2018-06-19T07:11:59.243Z,38.70
2018-06-19T07:14:27.494Z,37.30
2018-06-19T07:16:55.765Z,35.60
2018-06-19T07:19:24.050Z,37.70
2018-06-19T07:21:52.305Z,26.63
2018-06-19T07:24:20.548Z,27.70
2018-06-19T07:26:48.819Z,36.43
2018-06-19T07:29:17.061Z,32.33
2018-06-19T07:31:45.329Z,29.00
2018-06-19T07:34:13.701Z,31.13
2018-06-19T07:36:42.048Z,29.20
2018-06-19T07:39:11.024Z,31.50
2018-06-19T07:41:39.356Z,39.10
2018-06-19T07:44:07.685Z,29.30
2018-06-19T07:46:35.897Z,30.87
2018-06-19T07:49:04.158Z,25.43
2018-06-19T07:51:32.461Z,29.47
2018-06-19T07:54:00.889Z,27.53
2018-06-19T07:56:29.265Z,31.33
2018-06-19T07:58:57.501Z,27.80
2018-06-19T08:01:25.781Z,25.17
2018-06-19T08:03:54.025Z,22.80
2018-06-19T08:06:22.347Z,32.63
2018-06-19T08:08:50.606Z,22.03
2018-06-19T08:11:18.853Z,21.77
2018-06-19T08:13:47.134Z,25.53
2018-06-19T08:16:15.397Z,19.50
2018-06-19T08:18:43.732Z,22.07
2018-06-19T08:21:11.989Z,23.00
2018-06-19T08:23:40.297Z,25.53
2018-06-19T08:26:08.553Z,17.80
2018-06-19T08:28:36.862Z,19.83
2018-06-19T08:31:05.104Z,22.23
2018-06-19T08:33:33.408Z,26.23
2018-06-19T08:36:01.666Z,19.87
2018-06-19T08:38:29.945Z,18.80
2018-06-19T08:40:58.249Z,21.20
2018-06-19T08:43:26.556Z,22.47
2018-06-19T08:45:54.840Z,19.40
2018-06-19T08:48:23.129Z,19.10
2018-06-19T08:50:51.377Z,15.00
2018-06-19T08:53:19.692Z,15.63
2018-06-19T08:55:47.951Z,24.37
2018-06-19T08:58:16.261Z,17.63
2018-06-19T09:00:44.553Z,24.53
2018-06-19T09:03:12.824Z,12.57
2018-06-19T09:05:41.144Z,19.00
2018-06-19T09:08:09.393Z,18.30
2018-06-19T09:10:37.680Z,19.03
2018-06-19T09:13:05.954Z,22.67
2018-06-19T09:15:34.256Z,18.60
2018-06-19T09:18:02.529Z,15.57
2018-06-19T09:20:30.826Z,22.23
2018-06-19T09:22:59.089Z,27.30
2018-06-19T09:25:27.374Z,17.40
2018-06-19T09:27:55.665Z,15.50
2018-06-19T09:30:23.933Z,22.83
2018-06-19T09:32:52.177Z,21.23
2018-06-19T09:35:20.488Z,22.60
2018-06-19T09:37:48.726Z,17.67
2018-06-19T09:40:17.027Z,20.93
2018-06-19T09:42:45.389Z,18.57
2018-06-19T09:45:13.944Z,17.00
2018-06-19T09:47:42.393Z,19.23
2018-06-19T09:50:10.650Z,17.90
2018-06-19T09:52:38.989Z,26.10
2018-06-19T09:55:07.287Z,21.97
2018-06-19T09:57:35.957Z,22.50
2018-06-19T10:00:04.706Z,22.93
2018-06-19T10:02:33.177Z,13.43
2018-06-19T10:05:01.480Z,17.13
2018-06-19T10:07:29.769Z,18.17
2018-06-19T10:09:58.049Z,21.63
2018-06-19T10:12:26.360Z,14.33
2018-06-19T10:14:54.618Z,23.83
2018-06-19T10:17:23.033Z,18.87
2018-06-19T10:19:51.393Z,18.40
2018-06-19T10:22:19.676Z,17.53
2018-06-19T10:24:47.933Z,17.87
2018-06-19T10:27:16.210Z,23.47
2018-06-19T10:29:44.455Z,22.63
2018-06-19T10:32:12.780Z,14.53
2018-06-19T10:34:41.059Z,23.67
2018-06-19T10:37:09.329Z,20.10
2018-06-19T10:39:37.632Z,18.60
2018-06-19T10:42:06.197Z,17.77
2018-06-19T10:44:34.449Z,17.43
2018-06-19T10:47:02.713Z,16.93
2018-06-19T10:49:31.145Z,15.30
2018-06-19T10:51:59.405Z,15.47
2018-06-19T10:54:27.777Z,11.53
2018-06-19T10:56:56.017Z,15.00
2018-06-19T10:59:24.272Z,8.97
2018-06-19T11:01:52.526Z,12.33
2018-06-19T11:04:20.797Z,16.93
2018-06-19T11:06:49.049Z,19.10
2018-06-19T11:09:17.314Z,11.77
2018-06-19T11:11:45.607Z,16.93
2018-06-19T11:14:13.948Z,23.80
2018-06-19T11:16:42.119Z,15.00
2018-06-19T11:19:10.389Z,18.07
2018-06-19T11:21:38.665Z,14.80
2018-06-19T11:24:06.999Z,15.73
2018-06-19T11:26:35.257Z,14.00
2018-06-19T11:29:03.565Z,8.43
2018-06-19T11:31:31.797Z,9.17
2018-06-19T11:34:00.070Z,10.40
2018-06-19T11:36:28.313Z,5.93
2018-06-19T11:38:56.614Z,11.97
2018-06-19T11:41:24.884Z,12.00
2018-06-19T11:43:53.424Z,9.70
2018-06-19T11:46:21.701Z,29.87
2018-06-19T11:48:49.950Z,8.07
2018-06-19T11:51:18.259Z,5.80
2018-06-19T11:53:46.478Z,9.43
2018-06-19T11:56:14.737Z,6.17
2018-06-19T11:58:42.985Z,5.43
2018-06-19T12:01:11.386Z,11.63
2018-06-19T12:03:39.565Z,2.73
2018-06-19T12:06:07.863Z,4.77
2018-06-19T12:08:36.113Z,6.63
2018-06-19T12:11:04.385Z,6.10
2018-06-19T12:13:32.673Z,3.23
2018-06-19T12:16:00.974Z,2.70
2018-06-19T12:18:29.217Z,2.17
2018-06-19T12:20:57.521Z,5.03
2018-06-19T12:23:26.011Z,7.50
2018-06-19T12:25:54.288Z,2.83
2018-06-19T12:28:22.571Z,4.77
2018-06-19T12:30:50.832Z,2.80
2018-06-19T12:33:19.101Z,2.50
2018-06-19T12:35:47.361Z,2.33
2018-06-19T12:38:15.621Z,2.37
2018-06-19T12:40:44.025Z,2.40
2018-06-19T12:43:12.813Z,3.43
2018-06-19T12:45:41.049Z,3.60
2018-06-19T12:48:09.336Z,1.43
2018-06-19T12:50:48.721Z,4.47
2018-06-19T12:53:28.364Z,4.63
2018-06-19T12:56:08.109Z,2.17
2018-06-19T12:58:36.417Z,3.47
2018-06-19T13:01:04.662Z,3.70
2018-06-19T13:03:44.360Z,6.80
2018-06-19T13:06:24.026Z,3.67
2018-06-19T13:08:52.325Z,2.77
2018-06-19T13:11:20.561Z,2.87
2018-06-19T13:14:00.057Z,7.83
2018-06-19T13:16:39.552Z,6.43
2018-06-19T13:19:23.469Z,2.80
2018-06-19T13:21:51.964Z,5.50
2018-06-19T13:24:20.432Z,2.07
2018-06-19T13:26:48.625Z,5.13
2018-06-19T13:29:39.557Z,2.37
2018-06-19T13:32:07.814Z,5.53
2018-06-19T13:34:36.649Z,6.40
2018-06-19T13:37:05.405Z,2.87
2018-06-19T13:39:34.217Z,2.53
2018-06-19T13:42:14.217Z,7.60
2018-06-19T13:44:56.909Z,3.93
2018-06-19T13:47:25.249Z,6.13
2018-06-19T13:49:53.714Z,7.77
2018-06-19T13:52:22.033Z,6.03
2018-06-19T13:54:50.292Z,5.73
2018-06-19T13:57:32.465Z,3.80
2018-06-19T14:00:02.109Z,2.33
2018-06-19T14:02:30.446Z,3.33
2018-06-19T14:04:59.072Z,10.50
2018-06-19T14:07:28.483Z,2.90
2018-06-19T14:10:08.321Z,3.30
2018-06-19T14:13:13.036Z,5.97
2018-06-19T14:15:44.342Z,2.17
2018-06-19T14:18:13.526Z,4.97
2018-06-19T14:20:42.409Z,6.53
2018-06-19T14:23:10.893Z,5.73
2018-06-19T14:25:39.221Z,5.77
2018-06-19T14:28:07.602Z,2.60
2018-06-19T14:30:36.001Z,8.30
2018-06-19T14:33:04.386Z,5.67
2018-06-19T14:35:32.598Z,6.83
2018-06-19T14:38:00.832Z,3.37
2018-06-19T14:40:29.181Z,5.40
2018-06-19T14:42:57.431Z,3.00
2018-06-19T14:45:25.845Z,12.40
2018-06-19T14:47:54.112Z,9.17
2018-06-19T14:50:22.374Z,2.40
2018-06-19T14:52:50.621Z,6.37
2018-06-19T14:55:18.906Z,6.50
2018-06-19T14:57:47.205Z,9.07
2018-06-19T15:00:15.489Z,7.10
2018-06-19T15:02:43.735Z,7.70
2018-06-19T15:05:12.018Z,7.53
2018-06-19T15:07:45.646Z,4.30
2018-06-19T15:10:16.110Z,5.57
2018-06-19T15:12:44.381Z,13.90
2018-06-19T15:15:12.756Z,8.17
2018-06-19T15:17:41.067Z,8.43
2018-06-19T15:20:09.377Z,9.97
2018-06-19T15:22:37.679Z,7.43
2018-06-19T15:25:06.063Z,11.53
2018-06-19T15:27:34.490Z,8.83
2018-06-19T15:30:03.368Z,7.57
2018-06-19T15:32:31.644Z,5.47
2018-06-19T15:34:59.950Z,9.60
2018-06-19T15:37:28.244Z,11.23
2018-06-19T15:39:56.614Z,7.77
2018-06-19T15:42:24.945Z,6.00
2018-06-19T15:44:53.396Z,6.10
2018-06-19T15:47:21.711Z,5.17
2018-06-19T15:49:50.124Z,3.90
2018-06-19T15:52:18.463Z,8.10
2018-06-19T15:54:47.608Z,6.37
2018-06-19T15:57:15.937Z,3.80
2018-06-19T15:59:44.381Z,6.70
2018-06-19T16:02:12.697Z,4.20
2018-06-19T16:04:40.976Z,12.10
2018-06-19T16:07:09.297Z,8.13
2018-06-19T16:09:37.605Z,8.67
2018-06-19T16:12:06.120Z,6.30
2018-06-19T16:14:34.425Z,11.43
2018-06-19T16:17:02.874Z,4.57
2018-06-19T16:19:33.233Z,10.70
2018-06-19T16:22:01.601Z,6.97
2018-06-19T16:24:29.895Z,10.23
2018-06-19T16:26:58.269Z,4.03
2018-06-19T16:29:26.537Z,4.53
2018-06-19T16:31:54.990Z,12.00
2018-06-19T16:34:23.365Z,6.90
2018-06-19T16:36:51.708Z,10.50
2018-06-19T16:39:20.045Z,8.33
2018-06-19T16:41:48.373Z,10.93
2018-06-19T16:44:16.685Z,6.77
2018-06-19T16:46:45.090Z,4.70
2018-06-19T16:49:13.818Z,8.70
2018-06-19T16:51:42.113Z,4.90
2018-06-19T16:54:10.445Z,15.37
2018-06-19T16:56:38.741Z,6.13
2018-06-19T16:59:07.065Z,7.60
2018-06-19T17:01:35.352Z,4.80
2018-06-19T17:04:03.673Z,5.60
2018-06-19T17:06:31.985Z,10.60
2018-06-19T17:09:00.337Z,6.97
2018-06-19T17:11:28.621Z,9.10
2018-06-19T17:13:56.966Z,13.47
2018-06-19T17:16:25.262Z,6.87
2018-06-19T17:18:53.609Z,6.00
2018-06-19T17:21:21.971Z,8.77
2018-06-19T17:23:50.250Z,8.90
2018-06-19T17:26:18.540Z,5.83
2018-06-19T17:28:46.860Z,4.97
2018-06-19T17:31:15.198Z,6.70
2018-06-19T17:33:43.500Z,8.30
2018-06-19T17:36:11.822Z,7.40
2018-06-19T17:38:40.167Z,9.43
2018-06-19T17:41:08.480Z,8.17
2018-06-19T17:43:36.815Z,10.10
2018-06-19T17:46:05.137Z,8.57
2018-06-19T17:48:33.409Z,8.13
2018-06-19T17:51:01.675Z,11.23
2018-06-19T17:53:29.925Z,7.93
2018-06-19T17:55:58.213Z,5.90
2018-06-19T17:58:26.476Z,8.10
2018-06-19T18:00:54.825Z,10.00
2018-06-19T18:03:23.109Z,12.47
2018-06-19T18:05:51.402Z,14.83
2018-06-19T18:08:19.668Z,17.83
2018-06-19T18:10:48.072Z,11.93
2018-06-19T18:13:16.272Z,18.57
2018-06-19T18:15:44.553Z,7.03
2018-06-19T18:18:12.841Z,11.50
2018-06-19T18:20:41.448Z,14.67
2018-06-19T18:23:09.755Z,5.17
2018-06-19T18:25:38.107Z,9.57
2018-06-19T18:28:06.382Z,6.70
2018-06-19T18:30:34.695Z,10.13
2018-06-19T18:33:03.136Z,10.77
2018-06-19T18:35:31.450Z,14.23
2018-06-19T18:37:59.729Z,9.33
2018-06-19T18:40:28.013Z,7.03
2018-06-19T18:42:56.382Z,11.60
2018-06-19T18:45:24.677Z,13.50
2018-06-19T18:47:52.961Z,10.20
2018-06-19T18:50:21.242Z,11.30
2018-06-19T18:52:49.546Z,13.03
2018-06-19T18:55:17.839Z,10.17
2018-06-19T18:57:46.120Z,9.67
2018-06-19T19:00:14.420Z,8.30
2018-06-19T19:02:42.721Z,15.10
2018-06-19T19:05:10.973Z,14.50
2018-06-19T19:07:39.250Z,16.53
2018-06-19T19:10:12.949Z,10.77
2018-06-19T19:12:41.233Z,10.20
2018-06-19T19:15:14.766Z,8.40
2018-06-19T19:17:48.484Z,8.50
2018-06-19T19:20:16.752Z,12.10
2018-06-19T19:22:45.033Z,13.87
2018-06-19T19:25:13.297Z,13.00
2018-06-19T19:27:46.893Z,17.70
2018-06-19T19:30:15.153Z,19.23
2018-06-19T19:32:43.438Z,6.77
2018-06-19T19:35:11.702Z,15.23
2018-06-19T19:37:45.200Z,8.13
2018-06-19T19:40:13.553Z,13.57
2018-06-19T19:42:42.020Z,11.60
2018-06-19T19:45:16.033Z,10.60
2018-06-19T19:47:52.153Z,14.37
2018-06-19T19:50:21.928Z,15.13
2018-06-19T19:57:15.641Z,14.13
2018-06-19T20:23:46.723Z,12.60
2018-06-19T20:26:16.310Z,10.93
2018-06-19T20:28:44.838Z,12.70
2018-06-19T20:31:14.092Z,8.60
2018-06-19T20:33:43.134Z,7.70
2018-06-19T20:55:25.702Z,13.77
2018-06-19T20:57:55.014Z,12.07
2018-06-19T21:00:29.454Z,11.30
2018-06-19T21:03:14.441Z,21.83
2018-06-19T21:05:43.098Z,13.33
2018-06-19T21:08:11.292Z,10.87
2018-06-19T21:53:54.447Z,11.20
2018-06-19T21:56:22.919Z,13.37
2018-06-19T21:58:51.506Z,6.40
2018-06-19T22:01:19.978Z,15.40
2018-06-19T22:37:18.877Z,20.67
2018-06-19T22:39:47.087Z,6.87
2018-06-19T22:42:15.325Z,13.20
2018-06-19T23:06:06.639Z,9.27
2018-06-19T23:19:29.898Z,15.10
2018-06-19T23:21:58.092Z,25.93
2018-06-19T23:24:26.282Z,15.03
2018-06-19T23:26:54.461Z,13.10
2018-06-19T23:29:22.632Z,10.13
2018-06-19T23:32:04.747Z,9.27
